sensor_id;sensor_type;location;lat;lon;timestamp;P1;durP1;ratioP1;P2;durP2;ratioP2
14088;SDS011;7120;52.890;6.040;2023-01-09T00:01:56;673.10;;;633.40;;
14088;SDS011;7120;52.890;6.040;2023-01-09T00:04:21;657.63;;;614.97;;
14088;SDS011;7120;52.890;6.040;2023-01-09T00:06:47;625.67;;;587.23;;
14088;SDS011;7120;52.890;6.040;2023-01-09T00:09:18;693.23;;;651.03;;
14088;SDS011;7120;52.890;6.040;2023-01-09T00:11:44;584.33;;;552.33;;
14088;SDS011;7120;52.890;6.040;2023-01-09T00:14:10;647.27;;;610.30;;
14088;SDS011;7120;52.890;6.040;2023-01-09T00:16:36;643.70;;;604.87;;
14088;SDS011;7120;52.890;6.040;2023-01-09T00:19:01;562.23;;;533.37;;
14088;SDS011;7120;52.890;6.040;2023-01-09T00:21:26;611.33;;;577.33;;
14088;SDS011;7120;52.890;6.040;2023-01-09T00:23:52;510.73;;;484.30;;
14088;SDS011;7120;52.890;6.040;2023-01-09T00:26:19;567.60;;;537.17;;
14088;SDS011;7120;52.890;6.040;2023-01-09T00:28:45;663.00;;;621.53;;
14088;SDS011;7120;52.890;6.040;2023-01-09T00:31:12;491.50;;;466.20;;
14088;SDS011;7120;52.890;6.040;2023-01-09T00:33:40;718.17;;;668.77;;
14088;SDS011;7120;52.890;6.040;2023-01-09T00:36:07;860.77;;;793.50;;
14088;SDS011;7120;52.890;6.040;2023-01-09T00:38:33;929.90;;;849.20;;
14088;SDS011;7120;52.890;6.040;2023-01-09T00:41:00;972.80;;;885.67;;
14088;SDS011;7120;52.890;6.040;2023-01-09T00:43:28;862.07;;;794.30;;
14088;SDS011;7120;52.890;6.040;2023-01-09T00:45:57;854.10;;;783.60;;
14088;SDS011;7120;52.890;6.040;2023-01-09T00:48:25;839.40;;;773.63;;
14088;SDS011;7120;52.890;6.040;2023-01-09T00:50:52;920.40;;;841.47;;
14088;SDS011;7120;52.890;6.040;2023-01-09T00:53:21;1169.23;;;999.90;;
14088;SDS011;7120;52.890;6.040;2023-01-09T00:55:49;916.10;;;840.27;;
14088;SDS011;7120;52.890;6.040;2023-01-09T00:58:16;552.67;;;522.27;;
14088;SDS011;7120;52.890;6.040;2023-01-09T01:00:42;1130.17;;;999.90;;
14088;SDS011;7120;52.890;6.040;2023-01-09T01:03:07;444.77;;;414.67;;
14088;SDS011;7120;52.890;6.040;2023-01-09T01:05:33;483.63;;;461.00;;
14088;SDS011;7120;52.890;6.040;2023-01-09T01:08:17;391.13;;;373.40;;
14088;SDS011;7120;52.890;6.040;2023-01-09T01:10:44;383.07;;;364.87;;
14088;SDS011;7120;52.890;6.040;2023-01-09T01:13:10;304.73;;;290.80;;
14088;SDS011;7120;52.890;6.040;2023-01-09T01:15:39;369.63;;;352.27;;
14088;SDS011;7120;52.890;6.040;2023-01-09T01:18:07;247.43;;;237.37;;
14088;SDS011;7120;52.890;6.040;2023-01-09T01:20:33;501.43;;;475.13;;
14088;SDS011;7120;52.890;6.040;2023-01-09T01:22:59;287.03;;;273.90;;
14088;SDS011;7120;52.890;6.040;2023-01-09T01:25:24;323.43;;;309.20;;
14088;SDS011;7120;52.890;6.040;2023-01-09T01:27:50;242.23;;;232.40;;
14088;SDS011;7120;52.890;6.040;2023-01-09T01:30:16;265.37;;;254.67;;
14088;SDS011;7120;52.890;6.040;2023-01-09T01:32:42;320.23;;;306.93;;
14088;SDS011;7120;52.890;6.040;2023-01-09T01:35:07;253.03;;;242.67;;
14088;SDS011;7120;52.890;6.040;2023-01-09T01:37:34;246.93;;;236.93;;
14088;SDS011;7120;52.890;6.040;2023-01-09T01:40:00;287.87;;;275.73;;
14088;SDS011;7120;52.890;6.040;2023-01-09T01:42:25;331.10;;;317.67;;
14088;SDS011;7120;52.890;6.040;2023-01-09T01:45:05;308.50;;;294.57;;
14088;SDS011;7120;52.890;6.040;2023-01-09T01:48:10;305.53;;;293.50;;
14088;SDS011;7120;52.890;6.040;2023-01-09T01:53:02;297.40;;;285.57;;
14088;SDS011;7120;52.890;6.040;2023-01-09T01:55:33;330.50;;;316.73;;
14088;SDS011;7120;52.890;6.040;2023-01-09T01:58:01;329.87;;;316.57;;
14088;SDS011;7120;52.890;6.040;2023-01-09T02:00:30;349.73;;;333.00;;
14088;SDS011;7120;52.890;6.040;2023-01-09T02:02:59;441.70;;;417.27;;
14088;SDS011;7120;52.890;6.040;2023-01-09T02:05:25;336.43;;;320.40;;
14088;SDS011;7120;52.890;6.040;2023-01-09T02:07:51;360.63;;;341.37;;
14088;SDS011;7120;52.890;6.040;2023-01-09T02:10:16;300.67;;;286.47;;
14088;SDS011;7120;52.890;6.040;2023-01-09T02:12:42;341.57;;;323.73;;
14088;SDS011;7120;52.890;6.040;2023-01-09T02:15:11;361.60;;;342.27;;
14088;SDS011;7120;52.890;6.040;2023-01-09T02:20:48;259.47;;;246.50;;
14088;SDS011;7120;52.890;6.040;2023-01-09T02:28:59;200.60;;;191.43;;
14088;SDS011;7120;52.890;6.040;2023-01-09T02:31:39;387.93;;;368.10;;
14088;SDS011;7120;52.890;6.040;2023-01-09T02:34:21;180.97;;;173.27;;
14088;SDS011;7120;52.890;6.040;2023-01-09T02:39:30;170.37;;;162.87;;
14088;SDS011;7120;52.890;6.040;2023-01-09T02:42:03;195.03;;;186.47;;
14088;SDS011;7120;52.890;6.040;2023-01-09T02:44:32;217.03;;;207.27;;
14088;SDS011;7120;52.890;6.040;2023-01-09T02:47:07;241.10;;;229.27;;
14088;SDS011;7120;52.890;6.040;2023-01-09T02:49:55;156.47;;;149.10;;
14088;SDS011;7120;52.890;6.040;2023-01-09T02:58:30;194.43;;;185.07;;
14088;SDS011;7120;52.890;6.040;2023-01-09T03:03:58;228.37;;;217.57;;
14088;SDS011;7120;52.890;6.040;2023-01-09T03:09:15;142.87;;;136.83;;
14088;SDS011;7120;52.890;6.040;2023-01-09T03:11:47;188.23;;;178.93;;
14088;SDS011;7120;52.890;6.040;2023-01-09T03:14:19;239.13;;;227.67;;
14088;SDS011;7120;52.890;6.040;2023-01-09T03:16:48;220.43;;;209.97;;
14088;SDS011;7120;52.890;6.040;2023-01-09T03:19:21;217.13;;;206.87;;
14088;SDS011;7120;52.890;6.040;2023-01-09T03:21:50;318.23;;;302.30;;
14088;SDS011;7120;52.890;6.040;2023-01-09T03:24:17;211.00;;;200.83;;
14088;SDS011;7120;52.890;6.040;2023-01-09T03:26:42;225.07;;;214.33;;
14088;SDS011;7120;52.890;6.040;2023-01-09T03:29:08;175.90;;;168.30;;
14088;SDS011;7120;52.890;6.040;2023-01-09T03:31:34;187.90;;;178.57;;
14088;SDS011;7120;52.890;6.040;2023-01-09T03:33:59;158.40;;;150.70;;
14088;SDS011;7120;52.890;6.040;2023-01-09T03:36:25;183.20;;;174.60;;
14088;SDS011;7120;52.890;6.040;2023-01-09T03:38:50;176.57;;;168.00;;
14088;SDS011;7120;52.890;6.040;2023-01-09T03:41:16;357.80;;;340.10;;
14088;SDS011;7120;52.890;6.040;2023-01-09T03:43:43;219.27;;;208.17;;
14088;SDS011;7120;52.890;6.040;2023-01-09T03:46:08;217.13;;;206.97;;
14088;SDS011;7120;52.890;6.040;2023-01-09T03:48:34;153.13;;;145.43;;
14088;SDS011;7120;52.890;6.040;2023-01-09T03:50:59;201.87;;;191.37;;
14088;SDS011;7120;52.890;6.040;2023-01-09T03:53:25;147.30;;;139.93;;
14088;SDS011;7120;52.890;6.040;2023-01-09T03:55:53;149.70;;;142.40;;
14088;SDS011;7120;52.890;6.040;2023-01-09T03:58:20;160.43;;;153.13;;
14088;SDS011;7120;52.890;6.040;2023-01-09T04:00:45;171.03;;;163.03;;
14088;SDS011;7120;52.890;6.040;2023-01-09T04:03:13;180.23;;;170.33;;
14088;SDS011;7120;52.890;6.040;2023-01-09T04:05:39;259.63;;;247.10;;
14088;SDS011;7120;52.890;6.040;2023-01-09T04:08:04;170.60;;;161.77;;
14088;SDS011;7120;52.890;6.040;2023-01-09T04:10:30;171.87;;;162.83;;
14088;SDS011;7120;52.890;6.040;2023-01-09T04:12:55;190.63;;;181.00;;
14088;SDS011;7120;52.890;6.040;2023-01-09T04:15:21;152.60;;;144.43;;
14088;SDS011;7120;52.890;6.040;2023-01-09T04:17:47;177.47;;;168.17;;
14088;SDS011;7120;52.890;6.040;2023-01-09T04:20:13;209.33;;;198.47;;
14088;SDS011;7120;52.890;6.040;2023-01-09T04:22:38;216.90;;;205.37;;
14088;SDS011;7120;52.890;6.040;2023-01-09T04:25:04;199.07;;;188.40;;
14088;SDS011;7120;52.890;6.040;2023-01-09T04:27:30;187.33;;;177.77;;
14088;SDS011;7120;52.890;6.040;2023-01-09T04:29:55;170.87;;;161.23;;
14088;SDS011;7120;52.890;6.040;2023-01-09T04:32:20;169.37;;;159.77;;
14088;SDS011;7120;52.890;6.040;2023-01-09T04:34:46;199.47;;;188.43;;
14088;SDS011;7120;52.890;6.040;2023-01-09T04:37:11;210.70;;;199.03;;
14088;SDS011;7120;52.890;6.040;2023-01-09T04:39:36;196.10;;;184.70;;
14088;SDS011;7120;52.890;6.040;2023-01-09T04:42:02;257.00;;;243.33;;
14088;SDS011;7120;52.890;6.040;2023-01-09T04:44:28;199.80;;;188.33;;
14088;SDS011;7120;52.890;6.040;2023-01-09T04:46:54;207.27;;;195.47;;
14088;SDS011;7120;52.890;6.040;2023-01-09T04:49:22;239.20;;;226.30;;
14088;SDS011;7120;52.890;6.040;2023-01-09T04:51:48;254.27;;;239.93;;
14088;SDS011;7120;52.890;6.040;2023-01-09T04:54:14;137.67;;;128.00;;
14088;SDS011;7120;52.890;6.040;2023-01-09T04:56:39;207.13;;;194.13;;
14088;SDS011;7120;52.890;6.040;2023-01-09T04:59:05;263.50;;;247.40;;
14088;SDS011;7120;52.890;6.040;2023-01-09T05:01:31;143.33;;;133.03;;
14088;SDS011;7120;52.890;6.040;2023-01-09T05:03:57;160.07;;;148.27;;
14088;SDS011;7120;52.890;6.040;2023-01-09T05:06:22;133.00;;;123.70;;
14088;SDS011;7120;52.890;6.040;2023-01-09T05:08:47;137.30;;;126.93;;
14088;SDS011;7120;52.890;6.040;2023-01-09T05:11:13;114.97;;;105.50;;
14088;SDS011;7120;52.890;6.040;2023-01-09T05:13:38;116.43;;;107.63;;
14088;SDS011;7120;52.890;6.040;2023-01-09T05:16:04;135.77;;;125.23;;
14088;SDS011;7120;52.890;6.040;2023-01-09T05:18:29;132.63;;;120.17;;
14088;SDS011;7120;52.890;6.040;2023-01-09T05:20:54;141.57;;;131.97;;
14088;SDS011;7120;52.890;6.040;2023-01-09T05:23:20;125.20;;;114.00;;
14088;SDS011;7120;52.890;6.040;2023-01-09T05:25:45;146.17;;;135.30;;
14088;SDS011;7120;52.890;6.040;2023-01-09T05:28:11;138.17;;;128.30;;
14088;SDS011;7120;52.890;6.040;2023-01-09T05:30:36;159.57;;;147.37;;
14088;SDS011;7120;52.890;6.040;2023-01-09T05:33:02;127.23;;;117.77;;
14088;SDS011;7120;52.890;6.040;2023-01-09T05:35:27;126.50;;;116.90;;
14088;SDS011;7120;52.890;6.040;2023-01-09T05:37:53;119.87;;;109.87;;
14088;SDS011;7120;52.890;6.040;2023-01-09T05:40:18;135.43;;;125.50;;
14088;SDS011;7120;52.890;6.040;2023-01-09T05:42:44;131.93;;;121.80;;
14088;SDS011;7120;52.890;6.040;2023-01-09T05:45:10;187.37;;;175.80;;
14088;SDS011;7120;52.890;6.040;2023-01-09T05:47:35;114.53;;;105.73;;
14088;SDS011;7120;52.890;6.040;2023-01-09T05:50:01;149.63;;;139.23;;
14088;SDS011;7120;52.890;6.040;2023-01-09T05:52:27;124.27;;;114.70;;
14088;SDS011;7120;52.890;6.040;2023-01-09T05:54:52;128.63;;;119.57;;
14088;SDS011;7120;52.890;6.040;2023-01-09T05:57:18;145.60;;;135.97;;
14088;SDS011;7120;52.890;6.040;2023-01-09T05:59:43;112.47;;;104.23;;
14088;SDS011;7120;52.890;6.040;2023-01-09T06:02:08;139.23;;;129.97;;
14088;SDS011;7120;52.890;6.040;2023-01-09T06:04:34;170.37;;;160.03;;
14088;SDS011;7120;52.890;6.040;2023-01-09T06:06:59;155.00;;;145.83;;
14088;SDS011;7120;52.890;6.040;2023-01-09T06:09:25;127.53;;;119.07;;
14088;SDS011;7120;52.890;6.040;2023-01-09T06:11:50;146.27;;;136.53;;
14088;SDS011;7120;52.890;6.040;2023-01-09T06:14:16;134.00;;;125.50;;
14088;SDS011;7120;52.890;6.040;2023-01-09T06:16:41;138.07;;;129.80;;
14088;SDS011;7120;52.890;6.040;2023-01-09T06:19:06;186.93;;;176.67;;
14088;SDS011;7120;52.890;6.040;2023-01-09T06:21:32;172.37;;;161.10;;
14088;SDS011;7120;52.890;6.040;2023-01-09T06:23:58;203.30;;;190.73;;
14088;SDS011;7120;52.890;6.040;2023-01-09T06:26:25;339.30;;;317.43;;
14088;SDS011;7120;52.890;6.040;2023-01-09T06:28:50;107.77;;;100.60;;
14088;SDS011;7120;52.890;6.040;2023-01-09T06:31:16;109.10;;;101.73;;
14088;SDS011;7120;52.890;6.040;2023-01-09T06:33:41;117.13;;;109.87;;
14088;SDS011;7120;52.890;6.040;2023-01-09T06:36:07;96.23;;;89.33;;
14088;SDS011;7120;52.890;6.040;2023-01-09T06:38:33;123.93;;;116.00;;
14088;SDS011;7120;52.890;6.040;2023-01-09T06:40:58;112.63;;;105.30;;
14088;SDS011;7120;52.890;6.040;2023-01-09T06:43:24;362.73;;;338.87;;
14088;SDS011;7120;52.890;6.040;2023-01-09T06:45:49;111.83;;;105.27;;
14088;SDS011;7120;52.890;6.040;2023-01-09T06:48:14;114.07;;;106.30;;
14088;SDS011;7120;52.890;6.040;2023-01-09T06:50:40;134.03;;;126.10;;
14088;SDS011;7120;52.890;6.040;2023-01-09T06:53:05;131.87;;;124.13;;
14088;SDS011;7120;52.890;6.040;2023-01-09T06:55:31;117.87;;;110.27;;
14088;SDS011;7120;52.890;6.040;2023-01-09T06:57:56;112.23;;;105.93;;
14088;SDS011;7120;52.890;6.040;2023-01-09T07:00:22;104.90;;;98.50;;
14088;SDS011;7120;52.890;6.040;2023-01-09T07:02:47;107.53;;;100.57;;
14088;SDS011;7120;52.890;6.040;2023-01-09T07:05:13;120.87;;;113.90;;
14088;SDS011;7120;52.890;6.040;2023-01-09T07:07:38;109.33;;;102.77;;
14088;SDS011;7120;52.890;6.040;2023-01-09T07:10:05;112.73;;;105.90;;
14088;SDS011;7120;52.890;6.040;2023-01-09T07:12:31;118.97;;;111.77;;
14088;SDS011;7120;52.890;6.040;2023-01-09T07:14:57;103.57;;;97.17;;
14088;SDS011;7120;52.890;6.040;2023-01-09T07:17:22;118.40;;;110.67;;
14088;SDS011;7120;52.890;6.040;2023-01-09T07:19:47;95.63;;;90.03;;
14088;SDS011;7120;52.890;6.040;2023-01-09T07:22:13;118.13;;;111.70;;
14088;SDS011;7120;52.890;6.040;2023-01-09T07:24:38;99.37;;;93.40;;
14088;SDS011;7120;52.890;6.040;2023-01-09T07:27:03;111.13;;;104.23;;
14088;SDS011;7120;52.890;6.040;2023-01-09T07:29:29;92.43;;;86.63;;
14088;SDS011;7120;52.890;6.040;2023-01-09T07:31:55;115.80;;;109.20;;
14088;SDS011;7120;52.890;6.040;2023-01-09T07:34:21;106.20;;;100.00;;
14088;SDS011;7120;52.890;6.040;2023-01-09T07:36:46;92.60;;;87.30;;
14088;SDS011;7120;52.890;6.040;2023-01-09T07:39:14;109.40;;;103.10;;
14088;SDS011;7120;52.890;6.040;2023-01-09T07:41:40;117.60;;;111.27;;
14088;SDS011;7120;52.890;6.040;2023-01-09T07:44:05;150.00;;;142.57;;
14088;SDS011;7120;52.890;6.040;2023-01-09T07:46:31;97.57;;;92.03;;
14088;SDS011;7120;52.890;6.040;2023-01-09T07:48:57;129.97;;;123.20;;
14088;SDS011;7120;52.890;6.040;2023-01-09T07:51:22;133.17;;;126.20;;
14088;SDS011;7120;52.890;6.040;2023-01-09T07:53:47;125.57;;;118.30;;
14088;SDS011;7120;52.890;6.040;2023-01-09T07:56:13;118.87;;;112.27;;
14088;SDS011;7120;52.890;6.040;2023-01-09T07:58:38;127.77;;;120.90;;
14088;SDS011;7120;52.890;6.040;2023-01-09T08:01:04;143.43;;;135.70;;
14088;SDS011;7120;52.890;6.040;2023-01-09T08:03:30;123.30;;;116.83;;
14088;SDS011;7120;52.890;6.040;2023-01-09T08:05:57;146.57;;;138.77;;
14088;SDS011;7120;52.890;6.040;2023-01-09T08:08:23;147.17;;;139.23;;
14088;SDS011;7120;52.890;6.040;2023-01-09T08:10:48;130.10;;;122.70;;
14088;SDS011;7120;52.890;6.040;2023-01-09T08:13:14;152.70;;;144.80;;
14088;SDS011;7120;52.890;6.040;2023-01-09T08:15:39;151.47;;;143.53;;
14088;SDS011;7120;52.890;6.040;2023-01-09T08:18:04;153.30;;;145.20;;
14088;SDS011;7120;52.890;6.040;2023-01-09T08:20:30;149.73;;;142.07;;
14088;SDS011;7120;52.890;6.040;2023-01-09T08:22:56;188.63;;;178.27;;
14088;SDS011;7120;52.890;6.040;2023-01-09T08:25:21;146.33;;;138.73;;
14088;SDS011;7120;52.890;6.040;2023-01-09T08:27:47;143.87;;;136.33;;
14088;SDS011;7120;52.890;6.040;2023-01-09T08:30:12;149.23;;;141.40;;
14088;SDS011;7120;52.890;6.040;2023-01-09T08:32:38;189.50;;;179.47;;
14088;SDS011;7120;52.890;6.040;2023-01-09T08:35:05;137.10;;;129.97;;
14088;SDS011;7120;52.890;6.040;2023-01-09T08:37:32;134.40;;;127.00;;
14088;SDS011;7120;52.890;6.040;2023-01-09T08:39:58;125.47;;;118.63;;
14088;SDS011;7120;52.890;6.040;2023-01-09T08:42:23;143.03;;;135.37;;
14088;SDS011;7120;52.890;6.040;2023-01-09T08:45:10;155.67;;;147.00;;
14088;SDS011;7120;52.890;6.040;2023-01-09T08:47:55;173.37;;;164.90;;
14088;SDS011;7120;52.890;6.040;2023-01-09T08:50:21;389.37;;;251.60;;
14088;SDS011;7120;52.890;6.040;2023-01-09T08:52:46;384.93;;;366.47;;
14088;SDS011;7120;52.890;6.040;2023-01-09T08:55:12;445.03;;;421.70;;
14088;SDS011;7120;52.890;6.040;2023-01-09T08:57:39;434.93;;;413.63;;
14088;SDS011;7120;52.890;6.040;2023-01-09T09:00:11;500.50;;;474.47;;
14088;SDS011;7120;52.890;6.040;2023-01-09T09:02:37;445.57;;;422.70;;
14088;SDS011;7120;52.890;6.040;2023-01-09T09:05:02;388.40;;;369.77;;
14088;SDS011;7120;52.890;6.040;2023-01-09T09:07:28;366.13;;;349.23;;
14088;SDS011;7120;52.890;6.040;2023-01-09T09:09:53;409.47;;;389.57;;
14088;SDS011;7120;52.890;6.040;2023-01-09T09:12:19;394.50;;;375.60;;
14088;SDS011;7120;52.890;6.040;2023-01-09T09:14:45;434.50;;;413.63;;
14088;SDS011;7120;52.890;6.040;2023-01-09T09:17:29;453.33;;;430.63;;
14088;SDS011;7120;52.890;6.040;2023-01-09T09:19:56;430.33;;;409.43;;
14088;SDS011;7120;52.890;6.040;2023-01-09T09:22:22;406.43;;;386.73;;
14088;SDS011;7120;52.890;6.040;2023-01-09T09:24:47;357.87;;;341.30;;
14088;SDS011;7120;52.890;6.040;2023-01-09T09:27:12;375.30;;;357.73;;
14088;SDS011;7120;52.890;6.040;2023-01-09T09:29:38;370.27;;;353.37;;
14088;SDS011;7120;52.890;6.040;2023-01-09T09:32:03;435.57;;;415.53;;
14088;SDS011;7120;52.890;6.040;2023-01-09T09:34:28;439.10;;;417.10;;
14088;SDS011;7120;52.890;6.040;2023-01-09T09:36:54;394.43;;;375.93;;
14088;SDS011;7120;52.890;6.040;2023-01-09T09:39:19;464.87;;;442.97;;
14088;SDS011;7120;52.890;6.040;2023-01-09T09:47:23;412.93;;;393.63;;
14088;SDS011;7120;52.890;6.040;2023-01-09T09:55:01;459.60;;;436.97;;
14088;SDS011;7120;52.890;6.040;2023-01-09T09:57:36;489.80;;;466.37;;
14088;SDS011;7120;52.890;6.040;2023-01-09T10:00:03;476.33;;;452.43;;
14088;SDS011;7120;52.890;6.040;2023-01-09T10:03:14;483.73;;;460.67;;
14088;SDS011;7120;52.890;6.040;2023-01-09T10:05:27;487.97;;;461.33;;
14088;SDS011;7120;52.890;6.040;2023-01-09T10:08:08;523.03;;;497.70;;
14088;SDS011;7120;52.890;6.040;2023-01-09T10:10:48;465.80;;;443.47;;
14088;SDS011;7120;52.890;6.040;2023-01-09T10:13:17;451.67;;;430.77;;
14088;SDS011;7120;52.890;6.040;2023-01-09T10:21:36;472.53;;;450.13;;
14088;SDS011;7120;52.890;6.040;2023-01-09T10:24:09;468.57;;;446.57;;
14088;SDS011;7120;52.890;6.040;2023-01-09T10:26:46;485.80;;;463.03;;
14088;SDS011;7120;52.890;6.040;2023-01-09T10:32:14;458.07;;;435.50;;
14088;SDS011;7120;52.890;6.040;2023-01-09T10:37:50;408.97;;;389.70;;
14088;SDS011;7120;52.890;6.040;2023-01-09T10:40:24;449.10;;;428.53;;
14088;SDS011;7120;52.890;6.040;2023-01-09T10:45:48;514.90;;;490.47;;
14088;SDS011;7120;52.890;6.040;2023-01-09T10:50:59;576.97;;;548.30;;
14088;SDS011;7120;52.890;6.040;2023-01-09T10:53:29;601.03;;;569.87;;
14088;SDS011;7120;52.890;6.040;2023-01-09T10:59:00;582.97;;;551.87;;
14088;SDS011;7120;52.890;6.040;2023-01-09T11:01:27;561.27;;;531.93;;
14088;SDS011;7120;52.890;6.040;2023-01-09T11:03:55;672.23;;;636.40;;
14088;SDS011;7120;52.890;6.040;2023-01-09T11:06:39;610.90;;;578.83;;
14088;SDS011;7120;52.890;6.040;2023-01-09T11:09:10;585.93;;;554.30;;
14088;SDS011;7120;52.890;6.040;2023-01-09T11:11:37;596.23;;;564.53;;
14088;SDS011;7120;52.890;6.040;2023-01-09T11:14:15;559.77;;;531.73;;
14088;SDS011;7120;52.890;6.040;2023-01-09T11:16:55;644.30;;;610.70;;
14088;SDS011;7120;52.890;6.040;2023-01-09T11:19:22;562.83;;;535.30;;
14088;SDS011;7120;52.890;6.040;2023-01-09T11:21:49;646.40;;;612.03;;
14088;SDS011;7120;52.890;6.040;2023-01-09T11:24:29;537.23;;;511.80;;
14088;SDS011;7120;52.890;6.040;2023-01-09T11:27:15;634.93;;;601.43;;
14088;SDS011;7120;52.890;6.040;2023-01-09T11:30:01;635.17;;;603.13;;
14088;SDS011;7120;52.890;6.040;2023-01-09T11:32:51;456.83;;;436.30;;
14088;SDS011;7120;52.890;6.040;2023-01-09T11:35:18;623.23;;;591.80;;
14088;SDS011;7120;52.890;6.040;2023-01-09T11:37:46;555.97;;;529.40;;
14088;SDS011;7120;52.890;6.040;2023-01-09T11:40:20;606.87;;;576.67;;
14088;SDS011;7120;52.890;6.040;2023-01-09T11:43:02;642.97;;;610.47;;
14088;SDS011;7120;52.890;6.040;2023-01-09T11:45:35;570.97;;;543.07;;
14088;SDS011;7120;52.890;6.040;2023-01-09T11:48:15;718.77;;;680.27;;
14088;SDS011;7120;52.890;6.040;2023-01-09T11:50:54;714.27;;;675.63;;
14088;SDS011;7120;52.890;6.040;2023-01-09T11:53:22;854.87;;;802.53;;
14088;SDS011;7120;52.890;6.040;2023-01-09T11:55:52;882.10;;;825.00;;
14088;SDS011;7120;52.890;6.040;2023-01-09T11:58:21;843.47;;;791.87;;
14088;SDS011;7120;52.890;6.040;2023-01-09T12:00:57;784.47;;;738.93;;
14088;SDS011;7120;52.890;6.040;2023-01-09T12:09:07;763.37;;;714.03;;
14088;SDS011;7120;52.890;6.040;2023-01-09T12:14:31;762.23;;;713.77;;
14088;SDS011;7120;52.890;6.040;2023-01-09T12:22:36;845.40;;;792.90;;
14088;SDS011;7120;52.890;6.040;2023-01-09T12:25:19;779.30;;;729.47;;
14088;SDS011;7120;52.890;6.040;2023-01-09T12:30:49;862.40;;;808.67;;
14088;SDS011;7120;52.890;6.040;2023-01-09T12:42:16;772.50;;;724.20;;
14088;SDS011;7120;52.890;6.040;2023-01-09T12:44:49;772.93;;;724.90;;
14088;SDS011;7120;52.890;6.040;2023-01-09T12:53:18;865.33;;;810.70;;
14088;SDS011;7120;52.890;6.040;2023-01-09T12:56:07;808.23;;;757.23;;
14088;SDS011;7120;52.890;6.040;2023-01-09T12:58:53;863.13;;;808.57;;
14088;SDS011;7120;52.890;6.040;2023-01-09T13:01:30;891.37;;;836.00;;
14088;SDS011;7120;52.890;6.040;2023-01-09T13:04:11;858.03;;;805.17;;
14088;SDS011;7120;52.890;6.040;2023-01-09T13:06:43;808.43;;;750.57;;
14088;SDS011;7120;52.890;6.040;2023-01-09T13:09:20;829.10;;;777.93;;
14088;SDS011;7120;52.890;6.040;2023-01-09T13:11:56;787.90;;;736.17;;
14088;SDS011;7120;52.890;6.040;2023-01-09T13:15:14;716.83;;;671.80;;
14088;SDS011;7120;52.890;6.040;2023-01-09T13:17:20;687.27;;;645.87;;
14088;SDS011;7120;52.890;6.040;2023-01-09T13:19:49;763.07;;;714.87;;
14088;SDS011;7120;52.890;6.040;2023-01-09T13:22:14;777.00;;;725.10;;
14088;SDS011;7120;52.890;6.040;2023-01-09T13:24:48;861.37;;;803.50;;
14088;SDS011;7120;52.890;6.040;2023-01-09T13:27:18;755.30;;;706.07;;
14088;SDS011;7120;52.890;6.040;2023-01-09T13:29:48;779.93;;;730.50;;
14088;SDS011;7120;52.890;6.040;2023-01-09T13:35:02;778.20;;;726.47;;
14088;SDS011;7120;52.890;6.040;2023-01-09T13:37:29;718.30;;;669.77;;
14088;SDS011;7120;52.890;6.040;2023-01-09T13:42:24;652.27;;;608.00;;
14088;SDS011;7120;52.890;6.040;2023-01-09T13:45:07;619.10;;;578.20;;
14088;SDS011;7120;52.890;6.040;2023-01-09T13:47:36;866.87;;;799.97;;
14088;SDS011;7120;52.890;6.040;2023-01-09T13:50:19;816.60;;;756.00;;
14088;SDS011;7120;52.890;6.040;2023-01-09T13:52:50;808.27;;;753.50;;
14088;SDS011;7120;52.890;6.040;2023-01-09T13:57:44;873.23;;;815.23;;
14088;SDS011;7120;52.890;6.040;2023-01-09T14:03:44;685.97;;;640.10;;
14088;SDS011;7120;52.890;6.040;2023-01-09T14:08:27;744.57;;;691.23;;
14088;SDS011;7120;52.890;6.040;2023-01-09T14:11:01;722.20;;;670.10;;
14088;SDS011;7120;52.890;6.040;2023-01-09T14:21:54;669.53;;;629.67;;
14088;SDS011;7120;52.890;6.040;2023-01-09T14:24:43;575.53;;;538.60;;
14088;SDS011;7120;52.890;6.040;2023-01-09T14:30:35;576.70;;;539.90;;
14088;SDS011;7120;52.890;6.040;2023-01-09T14:41:21;545.73;;;511.37;;
14088;SDS011;7120;52.890;6.040;2023-01-09T14:44:13;568.57;;;534.37;;
14088;SDS011;7120;52.890;6.040;2023-01-09T14:46:54;662.90;;;619.93;;
14088;SDS011;7120;52.890;6.040;2023-01-09T14:49:45;790.47;;;737.50;;
14088;SDS011;7120;52.890;6.040;2023-01-09T14:53:01;895.60;;;834.57;;
14088;SDS011;7120;52.890;6.040;2023-01-09T14:55:25;876.87;;;820.40;;
14088;SDS011;7120;52.890;6.040;2023-01-09T14:58:42;940.80;;;878.07;;
14088;SDS011;7120;52.890;6.040;2023-01-09T15:00:59;816.60;;;766.90;;
14088;SDS011;7120;52.890;6.040;2023-01-09T15:03:29;751.43;;;707.30;;
14088;SDS011;7120;52.890;6.040;2023-01-09T15:06:00;704.43;;;664.77;;
14088;SDS011;7120;52.890;6.040;2023-01-09T15:08:26;699.13;;;659.70;;
14088;SDS011;7120;52.890;6.040;2023-01-09T15:10:53;778.73;;;719.40;;
14088;SDS011;7120;52.890;6.040;2023-01-09T15:15:55;850.97;;;790.10;;
14088;SDS011;7120;52.890;6.040;2023-01-09T15:18:24;852.57;;;789.37;;
14088;SDS011;7120;52.890;6.040;2023-01-09T15:20:53;908.27;;;842.93;;
14088;SDS011;7120;52.890;6.040;2023-01-09T15:23:23;905.57;;;836.90;;
14088;SDS011;7120;52.890;6.040;2023-01-09T15:25:53;1001.00;;;921.00;;
14088;SDS011;7120;52.890;6.040;2023-01-09T15:28:31;1002.57;;;925.97;;
14088;SDS011;7120;52.890;6.040;2023-01-09T15:30:59;928.10;;;859.03;;
14088;SDS011;7120;52.890;6.040;2023-01-09T15:33:29;970.70;;;897.97;;
14088;SDS011;7120;52.890;6.040;2023-01-09T15:35:55;974.40;;;896.67;;
14088;SDS011;7120;52.890;6.040;2023-01-09T15:38:26;962.13;;;891.27;;
14088;SDS011;7120;52.890;6.040;2023-01-09T15:40:55;922.43;;;860.40;;
14088;SDS011;7120;52.890;6.040;2023-01-09T15:43:23;945.70;;;879.67;;
14088;SDS011;7120;52.890;6.040;2023-01-09T15:45:53;913.43;;;850.37;;
14088;SDS011;7120;52.890;6.040;2023-01-09T15:48:28;935.17;;;872.87;;
14088;SDS011;7120;52.890;6.040;2023-01-09T15:53:51;954.87;;;890.43;;
14088;SDS011;7120;52.890;6.040;2023-01-09T15:56:25;1000.03;;;926.27;;
14088;SDS011;7120;52.890;6.040;2023-01-09T15:58:55;1025.80;;;947.63;;
14088;SDS011;7120;52.890;6.040;2023-01-09T16:01:31;998.13;;;921.03;;
14088;SDS011;7120;52.890;6.040;2023-01-09T16:06:29;976.10;;;906.20;;
14088;SDS011;7120;52.890;6.040;2023-01-09T16:08:57;1014.13;;;933.07;;
14088;SDS011;7120;52.890;6.040;2023-01-09T16:11:31;907.93;;;845.50;;
14088;SDS011;7120;52.890;6.040;2023-01-09T16:14:20;940.67;;;872.93;;
14088;SDS011;7120;52.890;6.040;2023-01-09T16:17:04;879.53;;;819.27;;
14088;SDS011;7120;52.890;6.040;2023-01-09T16:24:47;936.40;;;872.33;;
14088;SDS011;7120;52.890;6.040;2023-01-09T16:29:49;972.60;;;902.43;;
14088;SDS011;7120;52.890;6.040;2023-01-09T16:32:22;972.10;;;900.67;;
14088;SDS011;7120;52.890;6.040;2023-01-09T16:34:54;903.07;;;838.80;;
14088;SDS011;7120;52.890;6.040;2023-01-09T16:37:24;846.40;;;789.57;;
14088;SDS011;7120;52.890;6.040;2023-01-09T16:42:38;830.87;;;775.47;;